sensor_id;sensor_type;location;lat;lon;timestamp;pressure;altitude;pressure_sealevel;temperature;humidity
55914;BME280;58179;48.776;9.124;2024-01-10T00:02:19;98163.91;;;-6.76;100.00
55914;BME280;58179;48.776;9.124;2024-01-10T00:04:45;98150.94;;;-6.74;100.00
55914;BME280;58179;48.776;9.124;2024-01-10T00:07:11;98149.19;;;-6.74;100.00
55914;BME280;58179;48.776;9.124;2024-01-10T00:09:38;98149.19;;;-6.74;100.00
55914;BME280;58179;48.776;9.124;2024-01-10T00:12:04;98154.09;;;-6.71;100.00
55914;BME280;58179;48.776;9.124;2024-01-10T00:14:32;98146.25;;;-6.69;100.00
55914;BME280;58179;48.776;9.124;2024-01-10T00:16:58;98151.25;;;-6.68;100.00
55914;BME280;58179;48.776;9.124;2024-01-10T00:19:24;98146.91;;;-6.67;100.00
55914;BME280;58179;48.776;9.124;2024-01-10T00:21:50;98148.69;;;-6.68;100.00
55914;BME280;58179;48.776;9.124;2024-01-10T00:24:17;98157.09;;;-6.66;100.00
55914;BME280;58179;48.776;9.124;2024-01-10T00:26:43;98149.50;;;-6.67;100.00
55914;BME280;58179;48.776;9.124;2024-01-10T00:29:09;98144.22;;;-6.66;100.00
55914;BME280;58179;48.776;9.124;2024-01-10T00:31:37;98135.81;;;-6.68;100.00
55914;BME280;58179;48.776;9.124;2024-01-10T00:34:03;98147.84;;;-6.68;100.00
55914;BME280;58179;48.776;9.124;2024-01-10T00:36:29;98144.47;;;-6.69;100.00
55914;BME280;58179;48.776;9.124;2024-01-10T00:38:55;98141.09;;;-6.69;100.00
55914;BME280;58179;48.776;9.124;2024-01-10T00:41:22;98135.94;;;-6.69;100.00
55914;BME280;58179;48.776;9.124;2024-01-10T00:43:48;98136.75;;;-6.69;100.00
55914;BME280;58179;48.776;9.124;2024-01-10T00:46:14;98134.16;;;-6.69;100.00
55914;BME280;58179;48.776;9.124;2024-01-10T00:48:42;98133.22;;;-6.68;100.00
55914;BME280;58179;48.776;9.124;2024-01-10T00:51:08;98134.16;;;-6.69;100.00
55914;BME280;58179;48.776;9.124;2024-01-10T00:53:34;98134.97;;;-6.68;100.00
55914;BME280;58179;48.776;9.124;2024-01-10T00:56:01;98134.97;;;-6.68;100.00
55914;BME280;58179;48.776;9.124;2024-01-10T00:58:27;98135.81;;;-6.68;100.00
55914;BME280;58179;48.776;9.124;2024-01-10T01:00:53;98124.69;;;-6.68;100.00
55914;BME280;58179;48.776;9.124;2024-01-10T01:03:19;98133.09;;;-6.66;100.00
55914;BME280;58179;48.776;9.124;2024-01-10T01:05:46;98129.59;;;-6.65;100.00
55914;BME280;58179;48.776;9.124;2024-01-10T01:08:13;98132.75;;;-6.61;100.00
55914;BME280;58179;48.776;9.124;2024-01-10T01:10:39;98132.59;;;-6.60;100.00
55914;BME280;58179;48.776;9.124;2024-01-10T01:13:05;98134.13;;;-6.57;100.00
55914;BME280;58179;48.776;9.124;2024-01-10T01:15:31;98137.50;;;-6.57;100.00
55914;BME280;58179;48.776;9.124;2024-01-10T01:17:57;98143.22;;;-6.53;100.00
55914;BME280;58179;48.776;9.124;2024-01-10T01:20:23;98139.69;;;-6.52;100.00
55914;BME280;58179;48.776;9.124;2024-01-10T01:22:51;98141.22;;;-6.50;100.00
55914;BME280;58179;48.776;9.124;2024-01-10T01:25:17;98141.09;;;-6.48;100.00
55914;BME280;58179;48.776;9.124;2024-01-10T01:27:43;98140.84;;;-6.45;100.00
55914;BME280;58179;48.776;9.124;2024-01-10T01:30:10;98144.09;;;-6.43;100.00
55914;BME280;58179;48.776;9.124;2024-01-10T01:32:37;98147.25;;;-6.40;100.00
55914;BME280;58179;48.776;9.124;2024-01-10T01:35:04;98141.97;;;-6.38;100.00
55914;BME280;58179;48.776;9.124;2024-01-10T01:37:30;98146.88;;;-6.35;100.00
55914;BME280;58179;48.776;9.124;2024-01-10T01:39:58;98144.16;;;-6.34;100.00
55914;BME280;58179;48.776;9.124;2024-01-10T01:42:24;98148.22;;;-6.31;100.00
55914;BME280;58179;48.776;9.124;2024-01-10T01:44:50;98141.19;;;-6.29;100.00
55914;BME280;58179;48.776;9.124;2024-01-10T01:47:16;98142.72;;;-6.27;100.00
55914;BME280;58179;48.776;9.124;2024-01-10T01:49:43;98146.81;;;-6.24;100.00
55914;BME280;58179;48.776;9.124;2024-01-10T01:52:09;98138.13;;;-6.23;100.00
55914;BME280;58179;48.776;9.124;2024-01-10T01:54:36;98137.06;;;-6.20;100.00
55914;BME280;58179;48.776;9.124;2024-01-10T01:57:04;98140.31;;;-6.18;100.00
55914;BME280;58179;48.776;9.124;2024-01-10T01:59:31;98143.72;;;-6.18;100.00
55914;BME280;58179;48.776;9.124;2024-01-10T02:01:58;98141.97;;;-6.17;100.00
55914;BME280;58179;48.776;9.124;2024-01-10T02:04:27;98132.47;;;-6.17;100.00
55914;BME280;58179;48.776;9.124;2024-01-10T02:06:54;98140.31;;;-6.18;100.00
55914;BME280;58179;48.776;9.124;2024-01-10T02:09:20;98136.22;;;-6.21;100.00
55914;BME280;58179;48.776;9.124;2024-01-10T02:11:46;98133.94;;;-6.24;100.00
55914;BME280;58179;48.776;9.124;2024-01-10T02:14:14;98135.13;;;-6.28;100.00
55914;BME280;58179;48.776;9.124;2024-01-10T02:16:41;98135.50;;;-6.33;100.00
55914;BME280;58179;48.776;9.124;2024-01-10T02:19:19;98128.97;;;-6.37;100.00
55914;BME280;58179;48.776;9.124;2024-01-10T02:21:45;98126.78;;;-6.41;100.00
55914;BME280;58179;48.776;9.124;2024-01-10T02:24:11;98127.28;;;-6.47;100.00
55914;BME280;58179;48.776;9.124;2024-01-10T02:26:39;98127.53;;;-6.50;100.00
55914;BME280;58179;48.776;9.124;2024-01-10T02:29:05;98118.56;;;-6.56;100.00
55914;BME280;58179;48.776;9.124;2024-01-10T02:31:31;98123.94;;;-6.59;100.00
55914;BME280;58179;48.776;9.124;2024-01-10T02:33:57;98120.66;;;-6.61;100.00
55914;BME280;58179;48.776;9.124;2024-01-10T02:36:24;98118.38;;;-6.64;100.00
55914;BME280;58179;48.776;9.124;2024-01-10T02:38:50;98119.31;;;-6.65;100.00
55914;BME280;58179;48.776;9.124;2024-01-10T02:41:16;98115.22;;;-6.68;100.00
55914;BME280;58179;48.776;9.124;2024-01-10T02:43:43;98120.34;;;-6.68;100.00
55914;BME280;58179;48.776;9.124;2024-01-10T02:46:09;98119.69;;;-6.70;100.00
55914;BME280;58179;48.776;9.124;2024-01-10T02:48:36;98116.16;;;-6.69;100.00
55914;BME280;58179;48.776;9.124;2024-01-10T02:51:02;98116.16;;;-6.69;100.00
55914;BME280;58179;48.776;9.124;2024-01-10T02:53:28;98119.41;;;-6.67;100.00
55914;BME280;58179;48.776;9.124;2024-01-10T02:55:56;98109.00;;;-6.65;100.00
55914;BME280;58179;48.776;9.124;2024-01-10T02:58:22;98111.34;;;-6.62;100.00
55914;BME280;58179;48.776;9.124;2024-01-10T03:00:52;98106.75;;;-6.58;100.00
55914;BME280;58179;48.776;9.124;2024-01-10T03:03:18;98112.47;;;-6.55;100.00
55914;BME280;58179;48.776;9.124;2024-01-10T03:05:44;98111.25;;;-6.51;100.00
55914;BME280;58179;48.776;9.124;2024-01-10T03:08:10;98106.81;;;-6.49;100.00
55914;BME280;58179;48.776;9.124;2024-01-10T03:10:37;98105.47;;;-6.43;100.00
55914;BME280;58179;48.776;9.124;2024-01-10T03:13:03;98100.91;;;-6.40;100.00
55914;BME280;58179;48.776;9.124;2024-01-10T03:15:29;98098.06;;;-6.37;100.00
55914;BME280;58179;48.776;9.124;2024-01-10T03:17:58;98103.78;;;-6.33;100.00
55914;BME280;58179;48.776;9.124;2024-01-10T03:20:24;98092.53;;;-6.32;100.00
55914;BME280;58179;48.776;9.124;2024-01-10T03:22:50;98093.09;;;-6.29;100.00
55914;BME280;58179;48.776;9.124;2024-01-10T03:25:16;98089.44;;;-6.26;100.00
55914;BME280;58179;48.776;9.124;2024-01-10T03:27:42;98097.03;;;-6.24;100.00
55914;BME280;58179;48.776;9.124;2024-01-10T03:30:09;98093.38;;;-6.22;100.00
55914;BME280;58179;48.776;9.124;2024-01-10T03:32:36;98086.47;;;-6.21;100.00
55914;BME280;58179;48.776;9.124;2024-01-10T03:35:04;98087.28;;;-6.21;100.00
55914;BME280;58179;48.776;9.124;2024-01-10T03:37:30;98082.94;;;-6.20;100.00
55914;BME280;58179;48.776;9.124;2024-01-10T03:39:56;98082.13;;;-6.21;100.00
55914;BME280;58179;48.776;9.124;2024-01-10T03:42:24;98084.59;;;-6.19;100.00
55914;BME280;58179;48.776;9.124;2024-01-10T03:44:50;98086.22;;;-6.18;100.00
55914;BME280;58179;48.776;9.124;2024-01-10T03:47:16;98092.19;;;-6.18;100.00
55914;BME280;58179;48.776;9.124;2024-01-10T03:49:42;98085.28;;;-6.17;100.00
55914;BME280;58179;48.776;9.124;2024-01-10T03:52:09;98094.66;;;-6.16;100.00
55914;BME280;58179;48.776;9.124;2024-01-10T03:54:36;98086.75;;;-6.15;100.00
55914;BME280;58179;48.776;9.124;2024-01-10T03:57:02;98093.66;;;-6.15;100.00
55914;BME280;58179;48.776;9.124;2024-01-10T03:59:28;98087.59;;;-6.14;100.00
55914;BME280;58179;48.776;9.124;2024-01-10T04:01:54;98083.94;;;-6.12;100.00
55914;BME280;58179;48.776;9.124;2024-01-10T04:04:21;98092.38;;;-6.10;100.00
55914;BME280;58179;48.776;9.124;2024-01-10T04:06:48;98093.03;;;-6.08;100.00
55914;BME280;58179;48.776;9.124;2024-01-10T04:09:15;98096.53;;;-6.09;100.00
55914;BME280;58179;48.776;9.124;2024-01-10T04:11:42;98097.00;;;-6.04;100.00
55914;BME280;58179;48.776;9.124;2024-01-10T04:14:08;98096.59;;;-5.99;100.00
55914;BME280;58179;48.776;9.124;2024-01-10T04:16:34;98098.91;;;-5.96;100.00
55914;BME280;58179;48.776;9.124;2024-01-10T04:19:00;98100.41;;;-5.94;100.00
55914;BME280;58179;48.776;9.124;2024-01-10T04:21:26;98101.09;;;-5.92;100.00
55914;BME280;58179;48.776;9.124;2024-01-10T04:23:52;98108.72;;;-5.90;100.00
55914;BME280;58179;48.776;9.124;2024-01-10T04:26:20;98109.41;;;-5.88;100.00
55914;BME280;58179;48.776;9.124;2024-01-10T04:28:46;98103.13;;;-5.86;100.00
55914;BME280;58179;48.776;9.124;2024-01-10T04:31:12;98100.28;;;-5.82;100.00
55914;BME280;58179;48.776;9.124;2024-01-10T04:33:39;98105.44;;;-5.82;100.00
55914;BME280;58179;48.776;9.124;2024-01-10T04:36:05;98100.97;;;-5.80;100.00
55914;BME280;58179;48.776;9.124;2024-01-10T04:38:32;98099.47;;;-5.83;100.00
55914;BME280;58179;48.776;9.124;2024-01-10T04:40:58;98091.50;;;-5.80;100.00
55914;BME280;58179;48.776;9.124;2024-01-10T04:43:26;98090.53;;;-5.79;100.00
55914;BME280;58179;48.776;9.124;2024-01-10T04:45:52;98085.22;;;-5.77;100.00
55914;BME280;58179;48.776;9.124;2024-01-10T04:48:18;98084.41;;;-5.78;100.00
55914;BME280;58179;48.776;9.124;2024-01-10T04:50:44;98085.88;;;-5.85;100.00
55914;BME280;58179;48.776;9.124;2024-01-10T04:53:10;98077.09;;;-5.82;100.00
55914;BME280;58179;48.776;9.124;2024-01-10T04:55:36;98088.09;;;-5.80;100.00
55914;BME280;58179;48.776;9.124;2024-01-10T04:58:03;98085.50;;;-5.80;100.00
55914;BME280;58179;48.776;9.124;2024-01-10T05:00:30;98088.22;;;-5.82;100.00
55914;BME280;58179;48.776;9.124;2024-01-10T05:02:56;98087.53;;;-5.84;100.00
55914;BME280;58179;48.776;9.124;2024-01-10T05:05:23;98094.75;;;-5.88;100.00
55914;BME280;58179;48.776;9.124;2024-01-10T05:07:50;98097.69;;;-5.92;100.00
55914;BME280;58179;48.776;9.124;2024-01-10T05:10:17;98097.16;;;-5.96;100.00
55914;BME280;58179;48.776;9.124;2024-01-10T05:12:43;98101.63;;;-5.98;100.00
55914;BME280;58179;48.776;9.124;2024-01-10T05:15:09;98100.25;;;-6.02;100.00
55914;BME280;58179;48.776;9.124;2024-01-10T05:17:37;98101.44;;;-6.06;100.00
55914;BME280;58179;48.776;9.124;2024-01-10T05:20:04;98100.91;;;-6.09;100.00
55914;BME280;58179;48.776;9.124;2024-01-10T05:22:30;98093.56;;;-6.14;100.00
55914;BME280;58179;48.776;9.124;2024-01-10T05:24:56;98100.75;;;-6.17;100.00
55914;BME280;58179;48.776;9.124;2024-01-10T05:27:22;98096.06;;;-6.23;100.00
55914;BME280;58179;48.776;9.124;2024-01-10T05:29:49;98098.81;;;-6.25;100.00
55914;BME280;58179;48.776;9.124;2024-01-10T05:32:15;98100.00;;;-6.29;100.00
55914;BME280;58179;48.776;9.124;2024-01-10T05:34:42;98093.47;;;-6.33;100.00
55914;BME280;58179;48.776;9.124;2024-01-10T05:37:09;98093.72;;;-6.36;100.00
55914;BME280;58179;48.776;9.124;2024-01-10T05:39:35;98094.22;;;-6.42;100.00
55914;BME280;58179;48.776;9.124;2024-01-10T05:42:01;98098.81;;;-6.46;100.00
55914;BME280;58179;48.776;9.124;2024-01-10T05:44:31;98091.59;;;-6.52;100.00
55914;BME280;58179;48.776;9.124;2024-01-10T05:46:57;98091.06;;;-6.55;100.00
55914;BME280;58179;48.776;9.124;2024-01-10T05:49:25;98097.50;;;-6.61;100.00
55914;BME280;58179;48.776;9.124;2024-01-10T05:51:52;98100.47;;;-6.66;100.00
55914;BME280;58179;48.776;9.124;2024-01-10T05:54:19;98097.34;;;-6.69;100.00
55914;BME280;58179;48.776;9.124;2024-01-10T05:56:45;98096.88;;;-6.74;100.00
55914;BME280;58179;48.776;9.124;2024-01-10T05:59:11;98098.09;;;-6.78;100.00
55914;BME280;58179;48.776;9.124;2024-01-10T06:01:37;98102.66;;;-6.82;100.00
55914;BME280;58179;48.776;9.124;2024-01-10T06:04:07;98100.59;;;-6.88;100.00
55914;BME280;58179;48.776;9.124;2024-01-10T06:06:33;98106.13;;;-6.92;100.00
55914;BME280;58179;48.776;9.124;2024-01-10T06:09:00;98108.34;;;-6.99;100.00
55914;BME280;58179;48.776;9.124;2024-01-10T06:11:26;98107.09;;;-7.05;100.00
55914;BME280;58179;48.776;9.124;2024-01-10T06:13:53;98106.66;;;-7.10;100.00
55914;BME280;58179;48.776;9.124;2024-01-10T06:16:19;98094.16;;;-7.14;100.00
55914;BME280;58179;48.776;9.124;2024-01-10T06:18:46;98097.09;;;-7.19;100.00
55914;BME280;58179;48.776;9.124;2024-01-10T06:21:12;98097.47;;;-7.23;100.00
55914;BME280;58179;48.776;9.124;2024-01-10T06:23:38;98104.84;;;-7.30;100.00
55914;BME280;58179;48.776;9.124;2024-01-10T06:26:05;98110.22;;;-7.33;100.00
55914;BME280;58179;48.776;9.124;2024-01-10T06:28:32;98110.47;;;-7.36;100.00
55914;BME280;58179;48.776;9.124;2024-01-10T06:30:58;98102.19;;;-7.39;100.00
55914;BME280;58179;48.776;9.124;2024-01-10T06:33:24;98097.97;;;-7.40;100.00
55914;BME280;58179;48.776;9.124;2024-01-10T06:35:52;98105.00;;;-7.43;100.00
55914;BME280;58179;48.776;9.124;2024-01-10T06:38:19;98106.06;;;-7.45;100.00
55914;BME280;58179;48.776;9.124;2024-01-10T06:40:46;98108.06;;;-7.49;100.00
55914;BME280;58179;48.776;9.124;2024-01-10T06:43:15;98113.41;;;-7.52;100.00
55914;BME280;58179;48.776;9.124;2024-01-10T06:45:41;98118.00;;;-7.55;100.00
55914;BME280;58179;48.776;9.124;2024-01-10T06:48:08;98126.75;;;-7.58;100.00
55914;BME280;58179;48.776;9.124;2024-01-10T06:50:34;98121.75;;;-7.59;100.00
55914;BME280;58179;48.776;9.124;2024-01-10T06:53:00;98115.81;;;-7.60;100.00
55914;BME280;58179;48.776;9.124;2024-01-10T06:55:27;98121.75;;;-7.59;100.00
55914;BME280;58179;48.776;9.124;2024-01-10T06:57:55;98122.81;;;-7.62;100.00
55914;BME280;58179;48.776;9.124;2024-01-10T07:00:22;98128.19;;;-7.65;100.00
55914;BME280;58179;48.776;9.124;2024-01-10T07:02:50;98120.56;;;-7.66;100.00
55914;BME280;58179;48.776;9.124;2024-01-10T07:05:16;98123.41;;;-7.69;100.00
55914;BME280;58179;48.776;9.124;2024-01-10T07:07:42;98124.44;;;-7.72;100.00
55914;BME280;58179;48.776;9.124;2024-01-10T07:10:09;98129.03;;;-7.75;100.00
55914;BME280;58179;48.776;9.124;2024-01-10T07:12:36;98131.81;;;-7.78;100.00
55914;BME280;58179;48.776;9.124;2024-01-10T07:15:03;98129.47;;;-7.82;100.00
55914;BME280;58179;48.776;9.124;2024-01-10T07:17:30;98137.31;;;-7.83;100.00
55914;BME280;58179;48.776;9.124;2024-01-10T07:19:57;98139.19;;;-7.85;100.00
55914;BME280;58179;48.776;9.124;2024-01-10T07:22:23;98133.22;;;-7.86;100.00
55914;BME280;58179;48.776;9.124;2024-01-10T07:24:49;98139.19;;;-7.85;100.00
55914;BME280;58179;48.776;9.124;2024-01-10T07:27:16;98133.34;;;-7.87;100.00
55914;BME280;58179;48.776;9.124;2024-01-10T07:29:42;98143.50;;;-7.86;100.00
55914;BME280;58179;48.776;9.124;2024-01-10T07:32:08;98139.19;;;-7.85;100.00
55914;BME280;58179;48.776;9.124;2024-01-10T07:34:38;98142.31;;;-7.82;100.00
55914;BME280;58179;48.776;9.124;2024-01-10T07:37:05;98141.97;;;-7.77;100.00
55914;BME280;58179;48.776;9.124;2024-01-10T07:39:31;98141.63;;;-7.72;100.00
55914;BME280;58179;48.776;9.124;2024-01-10T07:41:58;98148.84;;;-7.66;100.00
55914;BME280;58179;48.776;9.124;2024-01-10T07:44:24;98153.53;;;-7.60;100.00
55914;BME280;58179;48.776;9.124;2024-01-10T07:46:50;98156.44;;;-7.54;100.00
55914;BME280;58179;48.776;9.124;2024-01-10T07:49:21;98157.59;;;-7.47;100.00
55914;BME280;58179;48.776;9.124;2024-01-10T07:51:49;98162.97;;;-7.38;100.00
55914;BME280;58179;48.776;9.124;2024-01-10T07:54:15;98171.56;;;-7.28;100.00
55914;BME280;58179;48.776;9.124;2024-01-10T07:56:41;98164.91;;;-7.20;100.00
55914;BME280;58179;48.776;9.124;2024-01-10T07:59:07;98162.44;;;-7.10;100.00
55914;BME280;58179;48.776;9.124;2024-01-10T08:01:33;98163.44;;;-7.01;100.00
55914;BME280;58179;48.776;9.124;2024-01-10T08:03:59;98167.72;;;-6.91;100.00
55914;BME280;58179;48.776;9.124;2024-01-10T08:06:25;98172.13;;;-6.82;100.00
55914;BME280;58179;48.776;9.124;2024-01-10T08:08:53;98175.75;;;-6.73;100.00
55914;BME280;58179;48.776;9.124;2024-01-10T08:11:19;98175.13;;;-6.66;100.00
55914;BME280;58179;48.776;9.124;2024-01-10T08:13:45;98183.03;;;-6.57;100.00
55914;BME280;58179;48.776;9.124;2024-01-10T08:16:11;98183.25;;;-6.49;100.00
55914;BME280;58179;48.776;9.124;2024-01-10T08:18:37;98186.94;;;-6.42;100.00
55914;BME280;58179;48.776;9.124;2024-01-10T08:21:04;98183.63;;;-6.33;100.00
55914;BME280;58179;48.776;9.124;2024-01-10T08:23:30;98182.88;;;-6.24;100.00
55914;BME280;58179;48.776;9.124;2024-01-10T08:25:58;98184.94;;;-6.18;100.00
55914;BME280;58179;48.776;9.124;2024-01-10T08:28:24;98188.75;;;-6.12;100.00
55914;BME280;58179;48.776;9.124;2024-01-10T08:30:52;98185.13;;;-6.10;100.00
55914;BME280;58179;48.776;9.124;2024-01-10T08:33:18;98182.41;;;-6.08;100.00
55914;BME280;58179;48.776;9.124;2024-01-10T08:35:44;98190.13;;;-6.08;100.00
55914;BME280;58179;48.776;9.124;2024-01-10T08:38:10;98193.69;;;-6.09;100.00
55914;BME280;58179;48.776;9.124;2024-01-10T08:40:37;98187.56;;;-6.08;100.00
55914;BME280;58179;48.776;9.124;2024-01-10T08:43:05;98188.53;;;-6.09;100.00
55914;BME280;58179;48.776;9.124;2024-01-10T08:45:31;98199.50;;;-6.07;100.00
55914;BME280;58179;48.776;9.124;2024-01-10T08:47:57;98199.38;;;-6.06;100.00
55914;BME280;58179;48.776;9.124;2024-01-10T08:50:23;98196.56;;;-6.03;100.00
55914;BME280;58179;48.776;9.124;2024-01-10T08:52:50;98196.41;;;-6.01;100.00
55914;BME280;58179;48.776;9.124;2024-01-10T08:55:16;98197.09;;;-5.99;100.00
55914;BME280;58179;48.776;9.124;2024-01-10T08:57:42;98200.38;;;-5.97;100.00
55914;BME280;58179;48.776;9.124;2024-01-10T09:00:11;98202.84;;;-5.96;100.00
55914;BME280;58179;48.776;9.124;2024-01-10T09:02:40;98205.13;;;-5.93;100.00
55914;BME280;58179;48.776;9.124;2024-01-10T09:05:07;98211.00;;;-5.91;100.00
55914;BME280;58179;48.776;9.124;2024-01-10T09:07:35;98207.19;;;-5.87;100.00
55914;BME280;58179;48.776;9.124;2024-01-10T09:10:02;98215.47;;;-5.83;100.00
55914;BME280;58179;48.776;9.124;2024-01-10T09:12:28;98206.81;;;-5.82;100.00
55914;BME280;58179;48.776;9.124;2024-01-10T09:14:54;98206.03;;;-5.73;100.00
55914;BME280;58179;48.776;9.124;2024-01-10T09:17:21;98211.50;;;-5.66;100.00
55914;BME280;58179;48.776;9.124;2024-01-10T09:19:48;98204.69;;;-5.67;100.00
55914;BME280;58179;48.776;9.124;2024-01-10T09:22:14;98207.56;;;-5.61;100.00
55914;BME280;58179;48.776;9.124;2024-01-10T09:24:40;98219.41;;;-5.58;100.00
55914;BME280;58179;48.776;9.124;2024-01-10T09:27:06;98216.41;;;-5.54;100.00
55914;BME280;58179;48.776;9.124;2024-01-10T09:29:34;98223.63;;;-5.57;100.00
55914;BME280;58179;48.776;9.124;2024-01-10T09:32:00;98228.13;;;-5.50;100.00
55914;BME280;58179;48.776;9.124;2024-01-10T09:34:27;98212.13;;;-5.43;100.00
55914;BME280;58179;48.776;9.124;2024-01-10T09:36:54;98222.09;;;-5.29;100.00
55914;BME280;58179;48.776;9.124;2024-01-10T09:39:20;98226.59;;;-5.22;100.00
55914;BME280;58179;48.776;9.124;2024-01-10T09:41:48;98228.38;;;-5.13;100.00
55914;BME280;58179;48.776;9.124;2024-01-10T09:44:14;98230.69;;;-5.10;100.00
55914;BME280;58179;48.776;9.124;2024-01-10T09:46:41;98229.34;;;-4.94;100.00
55914;BME280;58179;48.776;9.124;2024-01-10T09:49:09;98229.94;;;-4.81;100.00
55914;BME280;58179;48.776;9.124;2024-01-10T09:51:37;98235.66;;;-4.68;100.00
55914;BME280;58179;48.776;9.124;2024-01-10T09:54:03;98232.69;;;-4.54;100.00
55914;BME280;58179;48.776;9.124;2024-01-10T09:56:31;98225.63;;;-4.52;100.00
55914;BME280;58179;48.776;9.124;2024-01-10T09:58:59;98231.56;;;-4.03;100.00
55914;BME280;58179;48.776;9.124;2024-01-10T10:01:26;98228.53;;;-2.88;100.00
55914;BME280;58179;48.776;9.124;2024-01-10T10:03:54;98224.44;;;-1.50;100.00
55914;BME280;58179;48.776;9.124;2024-01-10T10:06:22;98222.03;;;-0.27;100.00
55914;BME280;58179;48.776;9.124;2024-01-10T10:08:49;98223.00;;;0.76;100.00
55914;BME280;58179;48.776;9.124;2024-01-10T10:11:16;98222.09;;;1.62;100.00
55914;BME280;58179;48.776;9.124;2024-01-10T10:13:42;98217.75;;;2.14;100.00
55914;BME280;58179;48.776;9.124;2024-01-10T10:16:09;98218.38;;;2.68;100.00
55914;BME280;58179;48.776;9.124;2024-01-10T10:18:41;98214.72;;;3.14;100.00
55914;BME280;58179;48.776;9.124;2024-01-10T10:21:09;98211.59;;;3.25;100.00
55914;BME280;58179;48.776;9.124;2024-01-10T10:23:36;98207.53;;;3.37;100.00
55914;BME280;58179;48.776;9.124;2024-01-10T10:26:12;98196.78;;;3.68;100.00
55914;BME280;58179;48.776;9.124;2024-01-10T10:28:44;98185.09;;;3.70;100.00
55914;BME280;58179;48.776;9.124;2024-01-10T10:31:11;98179.03;;;3.91;100.00
55914;BME280;58179;48.776;9.124;2024-01-10T10:33:38;98179.56;;;4.08;100.00
55914;BME280;58179;48.776;9.124;2024-01-10T10:36:05;98176.84;;;4.50;100.00
55914;BME280;58179;48.776;9.124;2024-01-10T10:38:31;98180.91;;;4.94;100.00
55914;BME280;58179;48.776;9.124;2024-01-10T10:40:59;98177.00;;;5.31;100.00
55914;BME280;58179;48.776;9.124;2024-01-10T10:43:27;98172.41;;;5.59;100.00
55914;BME280;58179;48.776;9.124;2024-01-10T10:45:57;98173.88;;;5.88;100.00
55914;BME280;58179;48.776;9.124;2024-01-10T10:48:24;98164.59;;;6.05;100.00
55914;BME280;58179;48.776;9.124;2024-01-10T10:50:57;98168.22;;;6.31;100.00
55914;BME280;58179;48.776;9.124;2024-01-10T10:53:26;98168.75;;;6.59;100.00
55914;BME280;58179;48.776;9.124;2024-01-10T10:55:54;98162.16;;;5.97;100.00
55914;BME280;58179;48.776;9.124;2024-01-10T10:58:21;98161.13;;;6.11;100.00
55914;BME280;58179;48.776;9.124;2024-01-10T11:00:49;98167.59;;;6.29;100.00
55914;BME280;58179;48.776;9.124;2024-01-10T11:03:17;98165.59;;;6.31;100.00
55914;BME280;58179;48.776;9.124;2024-01-10T11:05:43;98170.22;;;6.29;100.00
55914;BME280;58179;48.776;9.124;2024-01-10T11:08:12;98173.25;;;6.45;100.00
55914;BME280;58179;48.776;9.124;2024-01-10T11:10:42;98162.91;;;6.50;100.00
55914;BME280;58179;48.776;9.124;2024-01-10T11:13:23;98166.38;;;6.38;100.00
55914;BME280;58179;48.776;9.124;2024-01-10T11:16:21;98162.94;;;6.31;100.00
55914;BME280;58179;48.776;9.124;2024-01-10T11:19:08;98166.19;;;6.13;100.00
55914;BME280;58179;48.776;9.124;2024-01-10T11:21:48;98158.69;;;6.16;100.00
55914;BME280;58179;48.776;9.124;2024-01-10T11:24:21;98165.59;;;6.31;100.00
55914;BME280;58179;48.776;9.124;2024-01-10T11:26:47;98165.78;;;6.29;100.00
55914;BME280;58179;48.776;9.124;2024-01-10T11:29:15;98162.38;;;6.15;100.00
55914;BME280;58179;48.776;9.124;2024-01-10T11:31:50;98158.91;;;6.02;100.00
55914;BME280;58179;48.776;9.124;2024-01-10T11:34:24;98163.94;;;5.83;100.00
55914;BME280;58179;48.776;9.124;2024-01-10T11:37:09;98163.34;;;5.81;100.00
55914;BME280;58179;48.776;9.124;2024-01-10T11:39:35;98168.16;;;5.71;100.00
55914;BME280;58179;48.776;9.124;2024-01-10T11:42:02;98154.19;;;5.44;100.00
55914;BME280;58179;48.776;9.124;2024-01-10T11:44:29;98158.06;;;5.55;100.00
55914;BME280;58179;48.776;9.124;2024-01-10T11:46:58;98152.81;;;5.62;100.00
55914;BME280;58179;48.776;9.124;2024-01-10T11:49:25;98155.03;;;5.71;100.00
55914;BME280;58179;48.776;9.124;2024-01-10T11:51:54;98159.09;;;5.80;100.00
55914;BME280;58179;48.776;9.124;2024-01-10T11:54:38;98156.44;;;5.87;100.00
55914;BME280;58179;48.776;9.124;2024-01-10T11:57:14;98162.31;;;5.82;100.00
55914;BME280;58179;48.776;9.124;2024-01-10T11:59:42;98157.69;;;5.78;100.00
55914;BME280;58179;48.776;9.124;2024-01-10T12:02:10;98159.47;;;5.58;100.00
55914;BME280;58179;48.776;9.124;2024-01-10T12:04:37;98170.50;;;5.27;100.00
55914;BME280;58179;48.776;9.124;2024-01-10T12:07:03;98159.09;;;4.87;100.00
55914;BME280;58179;48.776;9.124;2024-01-10T12:09:32;98161.84;;;4.38;100.00
55914;BME280;58179;48.776;9.124;2024-01-10T12:11:58;98159.59;;;4.07;100.00
55914;BME280;58179;48.776;9.124;2024-01-10T12:14:25;98164.53;;;3.88;100.00
55914;BME280;58179;48.776;9.124;2024-01-10T12:16:51;98159.19;;;3.75;100.00
55914;BME280;58179;48.776;9.124;2024-01-10T12:19:20;98156.38;;;3.34;100.00
55914;BME280;58179;48.776;9.124;2024-01-10T12:21:46;98150.06;;;3.07;100.00
55914;BME280;58179;48.776;9.124;2024-01-10T12:24:14;98163.03;;;3.01;100.00
55914;BME280;58179;48.776;9.124;2024-01-10T12:26:44;98151.31;;;3.11;100.00
55914;BME280;58179;48.776;9.124;2024-01-10T12:29:11;98146.16;;;3.39;100.00
55914;BME280;58179;48.776;9.124;2024-01-10T12:31:37;98153.00;;;3.83;100.00
55914;BME280;58179;48.776;9.124;2024-01-10T12:34:07;98155.34;;;4.27;100.00
55914;BME280;58179;48.776;9.124;2024-01-10T12:36:36;98146.78;;;4.12;100.00
55914;BME280;58179;48.776;9.124;2024-01-10T12:39:03;98146.03;;;3.47;100.00
55914;BME280;58179;48.776;9.124;2024-01-10T12:41:30;98151.09;;;2.92;100.00
55914;BME280;58179;48.776;9.124;2024-01-10T12:43:59;98150.84;;;2.57;100.00
55914;BME280;58179;48.776;9.124;2024-01-10T12:46:29;98149.03;;;2.72;100.00
55914;BME280;58179;48.776;9.124;2024-01-10T12:49:00;98154.41;;;3.00;100.00
55914;BME280;58179;48.776;9.124;2024-01-10T12:51:27;98154.41;;;3.00;100.00
55914;BME280;58179;48.776;9.124;2024-01-10T12:53:56;98151.63;;;2.87;100.00